Terminal Aerodrome Forecast
Issued by NWS

Home | Current Version | Previous Version | Text Only | Print | Product List | Glossary On
Versions: 1 2 3 4 5 6 7 8 9 10 11 12 13 14 15 16 17 18 19 20 21 22 23 24 25 26 27
000
FTUS45 KGJT 140520
TAFEGE
TAF
KEGE 140520Z 1406/1506 VRB03KT P6SM FEW250
     FM142000 25008KT P6SM SCT100 SCT250
     FM150200 11004KT P6SM SCT100 SCT200
      AMD LTD TO CLD VIS AND WIND TIL 141300=

USA.gov is the U.S. government's official web portal to all federal, state and local government web resources and services.